createdAt,value
2018-01-03T11:31:31.509Z,985.5
2018-01-03T11:32:33.474Z,985.4
2018-01-03T11:33:34.846Z,985.5
2018-01-03T11:34:36.222Z,985.7
2018-01-03T11:35:37.589Z,985.6
2018-01-03T11:36:38.969Z,985.7
2018-01-03T11:37:40.344Z,985.8
2018-01-03T11:38:42.681Z,985.7
2018-01-03T11:39:56.876Z,985.7
2018-01-03T11:40:58.237Z,985.9
2018-01-03T11:41:59.614Z,986.0
2018-01-03T11:43:01.005Z,986.0
2018-01-03T11:44:02.436Z,986.1
2018-01-03T11:45:03.812Z,986.1
2018-01-03T11:46:06.074Z,986.1
2018-01-03T11:47:06.589Z,986.3
2018-01-03T11:48:07.978Z,986.4
2018-01-03T11:49:09.345Z,986.4
2018-01-03T11:50:10.724Z,986.4
2018-01-03T11:51:12.119Z,986.3
2018-01-03T11:52:14.436Z,986.5
2018-01-03T11:53:15.813Z,986.1
2018-01-03T11:54:17.179Z,986.4
2018-01-03T11:55:18.549Z,986.4
2018-01-03T11:56:19.926Z,986.4
2018-01-03T11:57:21.296Z,986.4
2018-01-03T11:58:22.672Z,986.6
2018-01-03T11:59:24.071Z,986.6
2018-01-03T12:00:25.445Z,986.4
2018-01-03T12:01:26.827Z,986.6
2018-01-03T12:02:28.186Z,986.7
2018-01-03T12:03:29.562Z,986.5
2018-01-03T12:04:30.937Z,986.7
2018-01-03T12:05:32.309Z,986.5
2018-01-03T12:06:33.702Z,986.5
2018-01-03T12:07:35.077Z,986.6
2018-01-03T12:08:36.451Z,986.7
2018-01-03T12:09:37.826Z,986.6
2018-01-03T12:10:39.222Z,986.7
2018-01-03T12:11:40.600Z,986.6
2018-01-03T12:12:42.002Z,986.8
2018-01-03T12:13:43.378Z,986.7
2018-01-03T12:14:44.769Z,986.7
2018-01-03T12:15:46.187Z,986.6
2018-01-03T12:16:47.582Z,986.6
2018-01-03T12:17:48.942Z,986.6
2018-01-03T12:18:50.335Z,986.6
2018-01-03T12:19:51.725Z,986.6
2018-01-03T12:20:53.133Z,986.6
2018-01-03T12:21:54.524Z,986.6
2018-01-03T12:22:55.948Z,986.7
2018-01-03T12:23:57.311Z,986.6
2018-01-03T12:24:58.711Z,986.7
2018-01-03T12:26:00.116Z,986.6
2018-01-03T12:27:01.542Z,986.9
2018-01-03T12:28:03.493Z,986.7
2018-01-03T12:29:04.866Z,987.0
2018-01-03T12:30:06.239Z,987.0
2018-01-03T12:31:07.622Z,987.0
2018-01-03T12:32:08.989Z,987.0
2018-01-03T12:33:10.350Z,987.1
2018-01-03T12:34:11.748Z,987.2
2018-01-03T12:35:13.198Z,987.2
2018-01-03T12:36:14.574Z,987.2
2018-01-03T12:37:15.976Z,987.3
2018-01-03T12:38:17.404Z,987.6
2018-01-03T12:39:18.807Z,987.4
2018-01-03T12:40:20.333Z,987.3
2018-01-03T12:41:21.695Z,987.4
2018-01-03T12:42:23.083Z,987.4
2018-01-03T12:43:24.524Z,987.4
2018-01-03T12:44:25.902Z,987.5
2018-01-03T12:45:27.320Z,987.5
2018-01-03T12:46:28.721Z,987.5
2018-01-03T12:47:30.111Z,987.5
2018-01-03T12:48:31.528Z,987.5
2018-01-03T12:49:32.915Z,987.6
2018-01-03T12:50:34.315Z,987.5
2018-01-03T12:51:35.748Z,987.7
2018-01-03T12:52:37.171Z,987.7
2018-01-03T12:53:38.556Z,987.8
2018-01-03T12:54:39.989Z,987.9
2018-01-03T12:55:41.445Z,987.7
2018-01-03T12:56:42.876Z,987.8
2018-01-03T12:57:44.294Z,987.9
2018-01-03T12:58:45.709Z,987.7
2018-01-03T12:59:47.107Z,988.0
2018-01-03T13:00:48.510Z,988.1
2018-01-03T13:01:49.910Z,988.2
2018-01-03T13:02:51.271Z,988.1
2018-01-03T13:03:52.651Z,988.1
2018-01-03T13:04:54.030Z,988.1
2018-01-03T13:05:55.428Z,988.1
2018-01-03T13:06:56.806Z,988.3
2018-01-03T13:07:58.221Z,988.2
2018-01-03T13:08:59.623Z,988.2
2018-01-03T13:10:01.013Z,988.3
2018-01-03T13:11:02.415Z,988.3
2018-01-03T13:12:03.836Z,988.3
2018-01-03T13:13:05.272Z,988.4
2018-01-03T13:14:07.500Z,988.4
2018-01-03T13:15:08.889Z,988.4
2018-01-03T13:16:10.247Z,988.3
2018-01-03T13:17:11.616Z,988.5
2018-01-03T13:18:12.996Z,988.5
2018-01-03T13:19:14.371Z,988.7
2018-01-03T13:20:15.751Z,988.6
2018-01-03T13:21:17.118Z,988.5
2018-01-03T13:22:18.524Z,988.7
2018-01-03T13:23:19.896Z,988.7
2018-01-03T13:24:21.269Z,988.7
2018-01-03T13:25:22.646Z,988.8
2018-01-03T13:26:24.016Z,988.8
2018-01-03T13:27:25.384Z,988.7
2018-01-03T13:28:26.780Z,988.6
2018-01-03T13:29:28.166Z,988.7
2018-01-03T13:30:29.566Z,988.7
2018-01-03T13:31:30.953Z,988.6
2018-01-03T13:32:32.354Z,988.7
2018-01-03T13:33:33.744Z,988.7
2018-01-03T13:34:35.161Z,988.7
2018-01-03T13:35:36.598Z,988.6
2018-01-03T13:36:37.972Z,988.8
2018-01-03T13:37:39.389Z,988.8
2018-01-03T13:38:40.776Z,988.7
2018-01-03T13:39:42.293Z,988.7
2018-01-03T13:40:43.672Z,988.8
2018-01-03T13:41:45.048Z,988.8
2018-01-03T13:42:46.416Z,988.8
2018-01-03T13:43:47.790Z,988.6
2018-01-03T13:44:49.162Z,988.7
2018-01-03T13:45:50.539Z,988.8
2018-01-03T13:46:51.927Z,988.8
2018-01-03T13:47:53.308Z,988.9
2018-01-03T13:48:55.007Z,989.0
2018-01-03T13:49:56.404Z,989.0
2018-01-03T13:50:57.786Z,989.0
2018-01-03T13:51:59.165Z,989.0
2018-01-03T13:53:00.575Z,989.1
2018-01-03T13:54:01.974Z,989.0
2018-01-03T13:55:03.371Z,989.0
2018-01-03T13:56:04.750Z,989.1
2018-01-03T13:57:06.140Z,989.1
2018-01-03T13:58:07.523Z,989.1
2018-01-03T13:59:08.914Z,989.1
2018-01-03T14:00:10.306Z,989.2
2018-01-03T14:01:11.698Z,989.2
2018-01-03T14:02:13.115Z,989.1
2018-01-03T14:03:14.543Z,989.2
2018-01-03T14:04:15.925Z,989.2
2018-01-03T14:05:17.302Z,989.2
2018-01-03T14:06:18.705Z,989.2
2018-01-03T14:07:20.110Z,989.2
2018-01-03T14:08:21.505Z,989.3
2018-01-03T14:09:22.916Z,989.3
2018-01-03T14:10:24.402Z,989.2
2018-01-03T14:11:25.831Z,989.3
2018-01-03T14:12:27.248Z,989.2
2018-01-03T14:13:28.630Z,989.1
2018-01-03T14:14:30.042Z,989.3
2018-01-03T14:15:31.499Z,989.4
2018-01-03T14:16:32.922Z,989.3
2018-01-03T14:17:34.333Z,989.3
2018-01-03T14:18:35.710Z,989.3
2018-01-03T14:19:37.145Z,989.4
2018-01-03T14:20:38.544Z,989.3
2018-01-03T14:21:40.013Z,989.4
2018-01-03T14:22:41.466Z,989.4
2018-01-03T14:23:42.896Z,989.4
2018-01-03T14:24:44.264Z,989.5
2018-01-03T14:25:45.636Z,989.5
2018-01-03T14:26:47.044Z,989.5
2018-01-03T14:27:48.434Z,989.6
2018-01-03T14:28:49.835Z,989.6
2018-01-03T14:29:51.268Z,989.6
2018-01-03T14:30:52.694Z,989.5
2018-01-03T14:31:54.066Z,989.6
2018-01-03T14:32:55.468Z,989.6
2018-01-03T14:33:56.924Z,989.7
2018-01-03T14:34:58.318Z,989.8
2018-01-03T14:35:59.738Z,989.8
2018-01-03T14:37:01.182Z,989.8
2018-01-03T14:38:02.636Z,989.9
2018-01-03T14:39:04.006Z,989.9
2018-01-03T14:40:05.395Z,989.7
2018-01-03T14:41:06.802Z,989.8
2018-01-03T14:42:08.245Z,989.8
2018-01-03T14:43:09.635Z,989.9
2018-01-03T14:44:11.091Z,989.8
2018-01-03T14:45:12.496Z,990.0
2018-01-03T14:46:13.928Z,989.8
2018-01-03T14:47:15.314Z,990.0
2018-01-03T14:48:16.782Z,990.0
2018-01-03T14:49:18.180Z,990.0
2018-01-03T14:50:19.569Z,990.0
2018-01-03T14:51:20.993Z,989.9
2018-01-03T14:52:22.403Z,989.9
2018-01-03T14:53:23.854Z,990.0
2018-01-03T14:54:25.269Z,990.0
2018-01-03T14:55:26.673Z,990.0
2018-01-03T14:56:28.132Z,990.1
2018-01-03T14:57:29.511Z,990.1
2018-01-03T14:58:30.928Z,990.2
2018-01-03T14:59:32.324Z,990.3
2018-01-03T15:00:33.788Z,990.3
2018-01-03T15:01:35.220Z,990.3
2018-01-03T15:02:36.640Z,990.3
2018-01-03T15:03:38.056Z,990.3
2018-01-03T15:04:39.467Z,990.3
2018-01-03T15:05:40.954Z,990.3
2018-01-03T15:06:42.380Z,990.3
2018-01-03T15:07:43.788Z,990.4
2018-01-03T15:08:45.177Z,990.3
2018-01-03T15:09:46.562Z,990.3
2018-01-03T15:10:47.996Z,990.3
2018-01-03T15:11:49.383Z,990.3
2018-01-03T15:12:50.813Z,990.3
2018-01-03T15:13:52.259Z,990.4
2018-01-03T15:14:53.656Z,990.3
2018-01-03T15:15:55.089Z,990.4
2018-01-03T15:16:56.509Z,990.5
2018-01-03T15:17:57.913Z,990.4
2018-01-03T15:18:59.319Z,990.4
2018-01-03T15:20:00.748Z,990.5
2018-01-03T15:21:02.152Z,990.5
2018-01-03T15:22:03.600Z,990.5
2018-01-03T15:23:05.039Z,990.4
2018-01-03T15:24:06.407Z,990.5
2018-01-03T15:25:07.810Z,990.7
2018-01-03T15:26:09.248Z,990.6
2018-01-03T15:27:10.701Z,990.7
2018-01-03T15:28:12.136Z,990.7
2018-01-03T15:29:13.585Z,990.7
2018-01-03T15:30:15.039Z,990.7
2018-01-03T15:31:16.403Z,990.7
2018-01-03T15:32:17.886Z,990.7
2018-01-03T15:33:19.228Z,990.8
2018-01-03T15:34:20.643Z,990.7
2018-01-03T15:35:22.066Z,990.7
2018-01-03T15:36:23.462Z,990.7
2018-01-03T15:37:24.839Z,990.7
2018-01-03T15:38:26.223Z,990.7
2018-01-03T15:39:27.613Z,990.8
2018-01-03T15:40:29.044Z,990.7
2018-01-03T15:41:30.463Z,990.7
2018-01-03T15:42:32.638Z,990.8
2018-01-03T15:43:33.345Z,990.8
2018-01-03T15:44:34.742Z,990.8
2018-01-03T15:45:36.130Z,990.7
2018-01-03T15:46:37.595Z,990.7
2018-01-03T15:47:38.997Z,990.7
2018-01-03T15:48:40.392Z,990.6
2018-01-03T15:49:41.800Z,990.7
2018-01-03T15:50:43.232Z,990.8
2018-01-03T15:51:44.623Z,990.7
2018-01-03T15:52:46.013Z,990.7
2018-01-03T15:53:47.382Z,990.7
2018-01-03T15:54:48.744Z,990.7
2018-01-03T15:55:50.163Z,990.6
2018-01-03T15:56:51.619Z,990.8
2018-01-03T15:57:53.062Z,990.7
2018-01-03T15:58:54.731Z,990.7
2018-01-03T15:59:56.103Z,990.7
2018-01-03T16:00:57.456Z,990.7
2018-01-03T16:01:58.823Z,990.8
2018-01-03T16:03:00.214Z,990.9
2018-01-03T16:04:01.636Z,991.0
2018-01-03T16:05:03.028Z,990.9
2018-01-03T16:06:04.387Z,990.9
2018-01-03T16:07:05.810Z,990.8
2018-01-03T16:08:07.259Z,990.9
2018-01-03T16:09:08.652Z,990.9
2018-01-03T16:10:10.042Z,990.8
2018-01-03T16:11:11.464Z,990.8
2018-01-03T16:12:12.869Z,990.7
2018-01-03T16:13:14.263Z,990.8
2018-01-03T16:14:15.653Z,990.8
2018-01-03T16:15:17.089Z,990.8
2018-01-03T16:16:18.502Z,990.9
2018-01-03T16:17:19.873Z,990.9
2018-01-03T16:18:21.343Z,990.9
2018-01-03T16:19:22.744Z,990.9
2018-01-03T16:20:24.131Z,990.9
2018-01-03T16:21:25.515Z,990.9
2018-01-03T16:22:27.015Z,990.9
2018-01-03T16:23:28.389Z,990.9
2018-01-03T16:24:29.799Z,990.9
2018-01-03T16:25:31.167Z,990.9
2018-01-03T16:26:32.582Z,990.9
2018-01-03T16:27:33.975Z,990.9
2018-01-03T16:28:35.354Z,990.9
2018-01-03T16:29:36.741Z,990.9
2018-01-03T16:30:38.112Z,990.9
2018-01-03T16:31:39.550Z,990.9
2018-01-03T16:32:40.965Z,990.9
2018-01-03T16:33:42.366Z,990.9
2018-01-03T16:34:43.838Z,990.9
2018-01-03T16:35:45.209Z,990.8
2018-01-03T16:36:46.627Z,990.8
2018-01-03T16:37:47.995Z,990.9
2018-01-03T16:38:49.416Z,990.9
2018-01-03T16:39:50.842Z,990.8
2018-01-03T16:40:52.283Z,991.0
2018-01-03T16:41:53.694Z,990.9
2018-01-03T16:42:55.103Z,990.9
2018-01-03T16:43:56.523Z,990.9
2018-01-03T16:44:58.003Z,990.8
2018-01-03T16:45:59.401Z,990.8
2018-01-03T16:47:00.774Z,990.8
2018-01-03T16:48:02.179Z,990.8
2018-01-03T16:49:03.579Z,990.8
2018-01-03T16:50:04.989Z,990.8
2018-01-03T16:51:06.390Z,990.8
2018-01-03T16:52:07.854Z,990.8
2018-01-03T16:53:09.249Z,990.9
2018-01-03T16:54:10.678Z,990.8
2018-01-03T16:55:12.057Z,990.8
2018-01-03T16:56:13.490Z,990.9
2018-01-03T16:57:14.908Z,990.8
2018-01-03T16:58:16.345Z,990.9
2018-01-03T16:59:17.696Z,990.9
2018-01-03T17:00:19.099Z,990.9
2018-01-03T17:01:20.506Z,990.9
2018-01-03T17:02:21.898Z,990.9
2018-01-03T17:03:23.480Z,990.9
2018-01-03T17:04:24.896Z,991.0
2018-01-03T17:05:26.265Z,991.0
2018-01-03T17:06:27.693Z,991.0
2018-01-03T17:07:29.119Z,990.9
2018-01-03T17:08:30.492Z,991.0
2018-01-03T17:09:31.862Z,990.9
2018-01-03T17:10:33.276Z,991.1
2018-01-03T17:11:34.703Z,991.0
2018-01-03T17:12:36.146Z,991.0
2018-01-03T17:13:37.535Z,991.0
2018-01-03T17:14:38.947Z,991.1
2018-01-03T17:15:40.329Z,991.2
2018-01-03T17:16:41.739Z,991.1
2018-01-03T17:17:43.162Z,991.2
2018-01-03T17:18:47.086Z,991.1
2018-01-03T17:19:48.519Z,991.3
2018-01-03T17:20:49.890Z,991.4
2018-01-03T17:21:51.252Z,991.4
2018-01-03T17:22:52.620Z,991.3
2018-01-03T17:23:53.982Z,991.4
2018-01-03T17:24:55.334Z,991.4
2018-01-03T17:25:56.693Z,991.3
2018-01-03T17:26:58.057Z,991.3
2018-01-03T17:27:59.440Z,991.4
2018-01-03T17:29:00.799Z,991.3
2018-01-03T17:30:02.171Z,991.2
2018-01-03T17:31:03.537Z,991.2
2018-01-03T17:32:04.896Z,991.3
2018-01-03T17:33:06.262Z,991.2
2018-01-03T17:34:07.607Z,991.2
2018-01-03T17:35:08.980Z,991.2
2018-01-03T17:36:10.346Z,991.3
2018-01-03T17:37:11.715Z,991.3
2018-01-03T17:38:13.075Z,991.2
2018-01-03T17:39:14.436Z,991.3
2018-01-03T17:40:15.795Z,991.3
2018-01-03T17:41:17.154Z,991.3
2018-01-03T17:42:19.487Z,991.3
2018-01-03T17:43:20.853Z,991.3
2018-01-03T17:44:22.211Z,991.3
2018-01-03T17:45:23.567Z,991.3
2018-01-03T17:46:24.930Z,991.3
2018-01-03T17:47:26.309Z,991.3
2018-01-03T17:48:27.672Z,991.3
2018-01-03T17:49:29.050Z,991.3
2018-01-03T17:50:30.408Z,991.3
2018-01-03T17:51:31.771Z,991.3
2018-01-03T17:52:33.146Z,991.3
2018-01-03T17:53:34.537Z,991.3
2018-01-03T17:54:35.887Z,991.3
2018-01-03T17:55:37.246Z,991.3
2018-01-03T17:56:38.614Z,991.4
2018-01-03T17:57:39.989Z,991.5
2018-01-03T17:58:41.353Z,991.4
2018-01-03T17:59:42.732Z,991.4
2018-01-03T18:00:44.085Z,991.6
2018-01-03T18:01:45.440Z,991.6
2018-01-03T18:02:46.811Z,991.6
2018-01-03T18:03:48.171Z,991.7
2018-01-03T18:04:49.542Z,991.7
2018-01-03T18:05:50.896Z,991.7
2018-01-03T18:06:52.257Z,991.7
2018-01-03T18:07:53.619Z,991.8
2018-01-03T18:08:56.042Z,991.7
2018-01-03T18:09:57.391Z,991.7
2018-01-03T18:10:58.749Z,991.8
2018-01-03T18:12:00.114Z,991.6
2018-01-03T18:13:01.474Z,991.6
2018-01-03T18:14:03.579Z,991.7
2018-01-03T18:15:05.049Z,991.7
2018-01-03T18:16:06.427Z,991.7
2018-01-03T18:17:07.773Z,991.6
2018-01-03T18:18:09.135Z,991.6
2018-01-03T18:19:10.505Z,991.7
2018-01-03T18:20:11.869Z,991.6
2018-01-03T18:21:13.221Z,991.6
2018-01-03T18:22:14.580Z,991.6
2018-01-03T18:23:15.935Z,991.6
2018-01-03T18:24:17.294Z,991.5
2018-01-03T18:25:18.658Z,991.6
2018-01-03T18:26:20.020Z,991.6
2018-01-03T18:27:21.435Z,991.6
2018-01-03T18:28:22.735Z,991.5
2018-01-03T18:29:24.086Z,991.6
2018-01-03T18:30:25.452Z,991.6
2018-01-03T18:31:26.812Z,991.6
2018-01-03T18:32:28.167Z,991.6
2018-01-03T18:33:29.529Z,991.5
2018-01-03T18:34:30.889Z,991.6
2018-01-03T18:35:32.237Z,991.6
2018-01-03T18:36:33.592Z,991.6
2018-01-03T18:37:34.944Z,991.6
2018-01-03T18:38:36.305Z,991.7
2018-01-03T18:39:37.657Z,991.7
2018-01-03T18:40:39.016Z,991.7
2018-01-03T18:41:40.372Z,991.7
2018-01-03T18:42:41.749Z,991.7
2018-01-03T18:43:43.123Z,991.7
2018-01-03T18:44:44.479Z,991.7
2018-01-03T18:45:45.838Z,991.7
2018-01-03T18:46:47.203Z,991.6
2018-01-03T18:47:48.580Z,991.6
2018-01-03T18:48:49.946Z,991.6
2018-01-03T18:49:51.483Z,991.6
2018-01-03T18:50:52.855Z,991.6
2018-01-03T18:51:54.226Z,991.6
2018-01-03T18:52:55.593Z,991.5
2018-01-03T18:53:57.129Z,991.6
2018-01-03T18:54:59.196Z,991.6
2018-01-03T18:55:59.806Z,991.6
2018-01-03T18:57:01.167Z,991.6
2018-01-03T18:58:02.520Z,991.6
2018-01-03T18:59:03.875Z,991.6
2018-01-03T19:00:05.239Z,991.6
2018-01-03T19:01:11.641Z,991.6
2018-01-03T19:02:12.976Z,991.7
2018-01-03T19:03:18.168Z,991.7
2018-01-03T19:04:23.135Z,991.7
2018-01-03T19:05:24.383Z,991.6
2018-01-03T19:06:25.927Z,991.6
2018-01-03T19:07:30.135Z,991.6
2018-01-03T19:08:34.931Z,991.5
2018-01-03T19:09:41.905Z,991.5
2018-01-03T19:10:43.081Z,991.5
2018-01-03T19:11:44.444Z,991.5
2018-01-03T19:12:45.812Z,991.6
2018-01-03T19:13:47.167Z,991.7
2018-01-03T19:14:48.523Z,991.7
2018-01-03T19:15:49.881Z,991.7
2018-01-03T19:16:51.247Z,991.7
2018-01-03T19:17:52.789Z,991.7
2018-01-03T19:18:54.157Z,991.7
2018-01-03T19:19:55.531Z,991.7
2018-01-03T19:20:56.882Z,991.6
2018-01-03T19:21:58.241Z,991.6
2018-01-03T19:22:59.604Z,991.6
2018-01-03T19:24:01.234Z,991.7
2018-01-03T19:25:02.595Z,991.7
2018-01-03T19:26:04.069Z,991.6
2018-01-03T19:27:05.762Z,991.6
2018-01-03T19:28:07.212Z,991.6
2018-01-03T19:29:08.572Z,991.6
2018-01-03T19:30:09.959Z,991.6
2018-01-03T19:31:11.330Z,991.6
2018-01-03T19:32:12.697Z,991.7
2018-01-03T19:33:14.060Z,991.6
2018-01-03T19:34:15.422Z,991.7
2018-01-03T19:35:16.774Z,991.6
2018-01-03T19:36:18.136Z,991.6
2018-01-03T19:37:19.504Z,991.7
2018-01-03T19:38:20.866Z,991.7
2018-01-03T19:39:22.218Z,991.7
2018-01-03T19:40:23.573Z,991.6
2018-01-03T19:41:24.936Z,991.5
2018-01-03T19:42:26.288Z,991.6
2018-01-03T19:43:27.660Z,991.6
2018-01-03T19:44:29.008Z,991.7
2018-01-03T19:45:30.376Z,991.7
2018-01-03T19:46:31.729Z,991.7
2018-01-03T19:47:33.180Z,991.6
2018-01-03T19:48:34.563Z,991.6
2018-01-03T19:49:35.925Z,991.7
2018-01-03T19:50:37.274Z,991.6
2018-01-03T19:51:39.011Z,991.6
2018-01-03T19:52:40.387Z,991.6
2018-01-03T19:53:41.746Z,991.6
2018-01-03T19:54:43.302Z,991.6
2018-01-03T19:55:44.672Z,991.6
2018-01-03T19:56:46.030Z,991.6
2018-01-03T19:57:47.429Z,991.6
2018-01-03T19:58:49.579Z,991.7
2018-01-03T19:59:50.946Z,991.7
2018-01-03T20:00:52.304Z,991.6
2018-01-03T20:01:53.658Z,991.6
2018-01-03T20:02:55.012Z,991.7
2018-01-03T20:03:56.380Z,991.6
2018-01-03T20:04:57.738Z,991.7
2018-01-03T20:05:59.117Z,991.7
2018-01-03T20:07:00.467Z,991.7
2018-01-03T20:08:01.829Z,991.7
2018-01-03T20:09:03.189Z,991.7
2018-01-03T20:10:04.550Z,991.8
2018-01-03T20:11:05.925Z,991.7
2018-01-03T20:12:07.301Z,991.7
2018-01-03T20:13:08.672Z,991.7
2018-01-03T20:14:10.044Z,991.9
2018-01-03T20:15:11.397Z,991.8
2018-01-03T20:16:12.746Z,991.9
2018-01-03T20:17:14.112Z,991.9
2018-01-03T20:18:16.131Z,991.9
2018-01-03T20:19:17.494Z,991.9
2018-01-03T20:20:18.848Z,991.9
2018-01-03T20:21:20.217Z,991.9
2018-01-03T20:22:21.608Z,991.9
2018-01-03T20:23:27.385Z,992.0
2018-01-03T20:24:29.833Z,992.1
2018-01-03T20:25:32.012Z,992.2
2018-01-03T20:26:36.016Z,992.2
2018-01-03T20:27:37.216Z,992.2
2018-01-03T20:28:39.117Z,992.2
2018-01-03T20:29:40.876Z,992.2
2018-01-03T20:30:42.300Z,992.1
2018-01-03T20:31:43.657Z,992.2
2018-01-03T20:32:45.042Z,992.1
2018-01-03T20:33:46.425Z,992.1
2018-01-03T20:34:47.780Z,992.1
2018-01-03T20:35:49.154Z,992.1
2018-01-03T20:36:50.499Z,992.2
2018-01-03T20:37:51.851Z,992.1
2018-01-03T20:38:53.214Z,992.1
2018-01-03T20:39:54.568Z,992.1
2018-01-03T20:40:55.937Z,992.1
2018-01-03T20:41:57.297Z,992.1
2018-01-03T20:42:58.657Z,992.0
2018-01-03T20:44:02.794Z,992.0
2018-01-03T20:45:07.094Z,992.0
2018-01-03T20:46:37.196Z,992.0
2018-01-03T20:47:38.528Z,992.0
2018-01-03T20:48:40.497Z,992.1
2018-01-03T20:49:48.900Z,992.2
2018-01-03T20:50:50.272Z,992.2
2018-01-03T20:51:51.671Z,992.2
2018-01-03T20:52:53.045Z,992.2
2018-01-03T20:53:54.411Z,992.3
2018-01-03T20:54:56.511Z,992.2
2018-01-03T20:55:57.876Z,992.2
2018-01-03T20:56:59.234Z,992.3
2018-01-03T20:58:00.614Z,992.3
2018-01-03T20:59:01.970Z,992.4
2018-01-03T21:00:03.350Z,992.4
2018-01-03T21:01:05.686Z,992.4
2018-01-03T21:02:07.044Z,992.4
2018-01-03T21:03:08.430Z,992.3
2018-01-03T21:04:09.787Z,992.3
2018-01-03T21:05:11.155Z,992.3
2018-01-03T21:06:12.512Z,992.2
2018-01-03T21:07:13.925Z,992.3
2018-01-03T21:08:15.339Z,992.2
2018-01-03T21:09:16.699Z,992.2
2018-01-03T21:10:18.074Z,992.2
2018-01-03T21:11:19.437Z,992.2
2018-01-03T21:12:20.812Z,992.2
2018-01-03T21:13:22.179Z,992.2
2018-01-03T21:14:23.529Z,992.3
2018-01-03T21:15:24.907Z,992.3
2018-01-03T21:16:26.291Z,992.3
2018-01-03T21:17:27.660Z,992.2
2018-01-03T21:18:29.093Z,992.2
2018-01-03T21:19:30.470Z,992.3
2018-01-03T21:20:31.835Z,992.3
2018-01-03T21:21:33.188Z,992.4
2018-01-03T21:22:34.552Z,992.2
2018-01-03T21:23:35.933Z,992.2
2018-01-03T21:24:37.820Z,992.4
2018-01-03T21:25:39.231Z,992.3
2018-01-03T21:26:40.616Z,992.3
2018-01-03T21:27:41.978Z,992.3
2018-01-03T21:28:43.345Z,992.2
2018-01-03T21:29:44.712Z,992.2
2018-01-03T21:30:46.078Z,992.2
2018-01-03T21:31:47.439Z,992.2
2018-01-03T21:32:48.817Z,992.3
2018-01-03T21:33:50.188Z,992.3
2018-01-03T21:34:51.568Z,992.3
2018-01-03T21:35:52.936Z,992.3
2018-01-03T21:36:54.315Z,992.3
2018-01-03T21:37:55.678Z,992.3
2018-01-03T21:38:57.043Z,992.3
2018-01-03T21:39:58.409Z,992.2
2018-01-03T21:40:59.781Z,992.3
2018-01-03T21:42:01.151Z,992.2
2018-01-03T21:43:03.174Z,992.2
2018-01-03T21:44:04.542Z,992.2
2018-01-03T21:45:05.895Z,992.2
2018-01-03T21:46:07.265Z,992.2
2018-01-03T21:47:08.619Z,992.2
2018-01-03T21:48:09.996Z,992.2
2018-01-03T21:49:11.350Z,992.3
2018-01-03T21:50:12.709Z,992.4
2018-01-03T21:51:14.063Z,992.3
2018-01-03T21:52:15.447Z,992.4
2018-01-03T21:53:16.872Z,992.4
2018-01-03T21:54:18.235Z,992.4
2018-01-03T21:55:19.607Z,992.4
2018-01-03T21:56:20.977Z,992.2
2018-01-03T21:57:22.327Z,992.3
2018-01-03T21:58:23.685Z,992.3
2018-01-03T21:59:25.055Z,992.3
2018-01-03T22:00:26.413Z,992.4
2018-01-03T22:01:27.795Z,992.4
2018-01-03T22:02:29.157Z,992.4
2018-01-03T22:03:30.574Z,992.4
2018-01-03T22:04:31.865Z,992.5
2018-01-03T22:05:33.235Z,992.6
2018-01-03T22:06:34.659Z,992.5
2018-01-03T22:07:36.030Z,992.5
2018-01-03T22:08:37.387Z,992.5
2018-01-03T22:09:38.749Z,992.4
2018-01-03T22:10:40.127Z,992.4
2018-01-03T22:11:41.486Z,992.3
2018-01-03T22:12:42.895Z,992.4
2018-01-03T22:13:44.269Z,992.3
2018-01-03T22:14:45.620Z,992.3
2018-01-03T22:15:46.998Z,992.3
2018-01-03T22:16:48.382Z,992.4
2018-01-03T22:17:49.737Z,992.4
2018-01-03T22:18:51.112Z,992.3
2018-01-03T22:19:52.478Z,992.4
2018-01-03T22:20:53.847Z,992.4
2018-01-03T22:21:55.236Z,992.3
2018-01-03T22:22:56.595Z,992.3
2018-01-03T22:23:57.962Z,992.4
2018-01-03T22:24:59.331Z,992.3
2018-01-03T22:26:00.689Z,992.3
2018-01-03T22:27:02.107Z,992.4
2018-01-03T22:28:03.467Z,992.3
2018-01-03T22:29:04.819Z,992.3
2018-01-03T22:30:06.189Z,992.4
2018-01-03T22:31:07.561Z,992.4
2018-01-03T22:32:08.924Z,992.4
2018-01-03T22:33:10.284Z,992.4
2018-01-03T22:34:12.986Z,992.5
2018-01-03T22:35:14.585Z,992.5
2018-01-03T22:36:15.948Z,992.5
2018-01-03T22:37:17.847Z,992.5
2018-01-03T22:38:22.758Z,992.4
2018-01-03T22:39:24.344Z,992.4
2018-01-03T22:40:25.791Z,992.4
2018-01-03T22:41:27.202Z,992.4
2018-01-03T22:42:28.748Z,992.4
2018-01-03T22:43:30.105Z,992.4
2018-01-03T22:44:31.470Z,992.3
2018-01-03T22:45:32.829Z,992.4
2018-01-03T22:46:34.225Z,992.4
2018-01-03T22:47:35.574Z,992.4
2018-01-03T22:48:36.947Z,992.3
2018-01-03T22:49:38.304Z,992.3
2018-01-03T22:50:39.668Z,992.3
2018-01-03T22:51:41.035Z,992.3
2018-01-03T22:52:42.406Z,992.3
2018-01-03T22:53:43.752Z,992.2
2018-01-03T22:54:45.105Z,992.2
2018-01-03T22:55:46.479Z,992.2
2018-01-03T22:56:47.838Z,992.2
2018-01-03T22:57:49.204Z,992.2
2018-01-03T22:58:50.568Z,992.2
2018-01-03T22:59:51.921Z,992.2
2018-01-03T23:00:53.284Z,992.3
2018-01-03T23:01:54.644Z,992.2
2018-01-03T23:02:55.993Z,992.2
2018-01-03T23:03:57.363Z,992.1
2018-01-03T23:04:58.725Z,992.1
2018-01-03T23:06:00.090Z,992.1
2018-01-03T23:07:01.454Z,992.1
2018-01-03T23:08:02.820Z,992.2
2018-01-03T23:09:04.175Z,992.1
2018-01-03T23:10:05.533Z,992.1
2018-01-03T23:11:06.902Z,992.1
2018-01-03T23:12:08.277Z,992.1
2018-01-03T23:13:09.637Z,992.1
2018-01-03T23:14:10.996Z,992.1
2018-01-03T23:15:12.351Z,992.1
2018-01-03T23:16:13.719Z,992.1
2018-01-03T23:17:15.099Z,992.0
2018-01-03T23:18:16.458Z,992.1
2018-01-03T23:19:17.822Z,992.0
2018-01-03T23:20:19.203Z,992.1
2018-01-03T23:21:20.565Z,992.0
2018-01-03T23:22:21.922Z,992.1
2018-01-03T23:23:23.289Z,992.2
2018-01-03T23:24:24.637Z,992.2
2018-01-03T23:25:26.008Z,992.1
2018-01-03T23:26:27.374Z,992.1
2018-01-03T23:27:28.731Z,992.1
2018-01-03T23:28:30.089Z,992.2
2018-01-03T23:29:31.483Z,992.2
2018-01-03T23:30:32.855Z,992.2
2018-01-03T23:31:34.214Z,992.2
2018-01-03T23:32:35.574Z,992.3
2018-01-03T23:33:36.938Z,992.3
2018-01-03T23:34:38.285Z,992.3
2018-01-03T23:35:39.640Z,992.3
2018-01-03T23:36:41.011Z,992.3
2018-01-03T23:37:42.381Z,992.3
2018-01-03T23:38:43.729Z,992.2
2018-01-03T23:39:45.084Z,992.3
2018-01-03T23:40:46.440Z,992.3
2018-01-03T23:41:47.803Z,992.3
2018-01-03T23:42:49.168Z,992.3
2018-01-03T23:43:50.523Z,992.4
2018-01-03T23:44:51.904Z,992.4
2018-01-03T23:45:53.259Z,992.4
2018-01-03T23:46:54.620Z,992.3
2018-01-03T23:47:55.974Z,992.2
2018-01-03T23:48:57.336Z,992.3
2018-01-03T23:49:58.695Z,992.3
2018-01-03T23:51:00.051Z,992.3
2018-01-03T23:52:01.414Z,992.2
2018-01-03T23:53:02.773Z,992.2
2018-01-03T23:54:04.128Z,992.3
2018-01-03T23:55:05.480Z,992.2
2018-01-03T23:56:06.834Z,992.2
2018-01-03T23:57:08.198Z,992.1
2018-01-03T23:58:09.559Z,992.2
2018-01-03T23:59:10.918Z,992.2
